Terminal Aerodrome Forecast
Issued by NWS

Home | Current Version | Previous Version | Text Only | Print | Product List | Glossary On
Versions: 1 2 3 4 5 6 7 8 9 10 11 12 13 14 15 16 17 18 19 20
000
FTAK31 PANC 301434 AAA
TAFACD
TAF AMD
PACD 301434Z 3015/0112 14031G42KT 4SM -RA BR SCT007 OVC015
     FM302100 14037G52KT 3SM -RA BR OVC012
     FM010100 14031G40KT 4SM -RA BR OVC009
     FM010600 15026G35KT 6SM -SHRA BR OVC015=

USA.gov is the U.S. government's official web portal to all federal, state and local government web resources and services.